Time;durP1;ratioP1;P1;durP2;ratioP2;P2;SDS_P1;SDS_P2;PMS_P1;PMS_P2;Temp;Humidity;BMP_temperature;BMP_pressure;BME280_temperature;BME280_humidity;BME280_pressure;Samples;Min_cycle;Max_cycle;Signal;HPM_P1;HPM_P2
2022/04/11 08:36:35;;;;;;;;;;;;;;;;;;;;;
2022/04/11 08:39:41;;;;;;;;;8.50;7.50;;;;;12.76;40.04;100788.72;5103672;27;72250;-80
2022/04/11 08:42:17;;;;;;;;;7.00;7.00;;;;;12.86;40.11;100779.78;5091121;27;45221;-80
2022/04/11 08:44:52;;;;;;;;;9.00;9.00;;;;;13.06;39.93;100795.38;5096234;27;45519;-79
2022/04/11 08:47:17;;;;;;;;;8.50;8.50;;;;;13.10;39.34;100783.00;5090478;27;46706;-82
2022/04/11 08:50:03;;;;;;;;;11.00;8.50;;;;;13.10;39.81;100762.72;5088331;27;45894;-84
2022/04/11 08:52:34;;;;;;;;;8.00;6.00;;;;;13.24;39.39;100760.75;5107414;27;45413;-81
2022/04/11 08:55:01;;;;;;;;;7.25;6.25;;;;;13.42;39.01;100769.34;5101913;27;45457;-80
2022/04/11 08:57:45;;;;;;;;;8.25;5.25;;;;;13.51;38.66;100763.06;5110280;27;46326;-81
2022/04/11 09:00:16;;;;;;;;;10.25;9.00;;;;;13.57;38.53;100755.00;5092012;27;45304;-80
2022/04/11 09:02:56;;;;;;;;;;;;;;;;;;;;;
2022/04/11 09:05:26;;;;;;;;;7.00;6.00;;;;;13.71;38.51;100746.84;5115275;27;72710;-78
2022/04/11 09:07:57;;;;;;;;;5.25;4.50;;;;;13.86;37.75;100757.19;5116475;27;45416;-79
2022/04/11 09:11:30;;;;;;;;;;;;;;;;;;;;;
2022/04/11 09:14:40;;;;;;;;;;;;;;;;;;;;;
2022/04/11 09:17:13;;;;;;;;;12.00;10.50;;;;;13.90;37.23;100746.53;5105139;27;45286;-81
2022/04/11 09:20:11;;;;;;;;;5.75;4.50;;;;;14.08;37.80;100744.44;5089477;27;46376;-82
2022/04/11 09:22:37;;;;;;;;;5.00;5.00;;;;;14.18;37.34;100750.44;5063794;27;45464;-80
2022/04/11 09:25:13;;;;;;;;;5.25;5.25;;;;;14.29;37.16;100757.28;5080424;27;45449;-81
2022/04/11 09:27:42;;;;;;;;;7.75;5.75;;;;;14.34;36.99;100741.31;5088235;27;45584;-81
2022/04/11 09:30:31;;;;;;;;;6.25;5.25;;;;;14.43;37.01;100727.00;5078995;27;47537;-81
2022/04/11 09:33:01;;;;;;;;;6.50;5.75;;;;;14.64;36.70;100733.69;5092150;27;45370;-81
2022/04/11 09:35:31;;;;;;;;;7.50;7.50;;;;;14.70;37.02;100725.59;5090887;27;45427;-81
2022/04/11 09:38:10;;;;;;;;;6.50;6.50;;;;;14.91;36.61;100734.88;5094141;27;45557;-81
2022/04/11 09:40:41;;;;;;;;;4.50;4.50;;;;;15.00;36.53;100735.56;5107940;27;45561;-81
2022/04/11 09:43:10;;;;;;;;;4.00;4.00;;;;;15.06;35.68;100728.38;5090684;27;45296;-81
2022/04/11 09:45:57;;;;;;;;;5.00;5.00;;;;;15.16;36.20;100725.47;5106842;27;45657;-82
2022/04/11 09:48:25;;;;;;;;;6.75;6.75;;;;;15.22;36.04;100712.06;5092055;27;45304;-81
2022/04/11 09:51:03;;;;;;;;;5.50;5.50;;;;;15.36;35.62;100705.56;5082867;27;46910;-81
2022/04/11 09:53:33;;;;;;;;;4.50;4.50;;;;;15.51;36.04;100706.97;5074650;27;45706;-81
2022/04/11 09:56:05;;;;;;;;;5.00;5.00;;;;;15.69;34.74;100710.97;5072011;27;45529;-82
2022/04/11 09:58:45;;;;;;;;;5.00;5.00;;;;;15.72;34.81;100708.25;5079912;28;45472;-84
2022/04/11 10:01:15;;;;;;;;;4.25;3.75;;;;;15.81;35.22;100703.56;5098656;27;46641;-81
2022/04/11 10:03:41;;;;;;;;;4.00;4.00;;;;;15.98;34.75;100716.38;5092737;27;45259;-82
2022/04/11 10:13:17;;;;;;;;;5.75;5.75;;;;;16.42;33.79;100705.47;5029704;28;45508;-80
2022/04/11 10:19:14;;;;;;;;;4.25;4.25;;;;;16.64;32.99;100713.69;4985734;28;45483;-80
2022/04/11 10:21:42;;;;;;;;;6.50;4.00;;;;;16.69;33.23;100701.13;5020533;28;45554;-81
2022/04/11 10:24:21;;;;;;;;;2.75;2.75;;;;;16.81;33.41;100699.91;5084572;27;46416;-81
2022/04/11 10:26:58;;;;;;;;;2.25;2.25;;;;;16.87;32.70;100687.31;5069248;28;45749;-79
2022/04/11 10:29:37;;;;;;;;;4.00;4.00;;;;;17.00;33.09;100687.81;5059440;28;45428;-80
2022/04/11 10:32:07;;;;;;;;;3.25;3.00;;;;;17.09;32.74;100676.88;5061385;28;45450;-79
2022/04/11 10:34:48;;;;;;;;;4.25;3.00;;;;;17.17;32.44;100671.31;5060248;28;48163;-80
2022/04/11 10:37:46;;;;;;;;;5.00;5.00;;;;;17.15;31.17;100662.50;5059316;28;45691;-80
2022/04/11 10:40:43;;;;;;;;;;;;;;;;;;;;;
2022/04/11 10:47:29;;;;;;;;;5.75;3.00;;;;;17.19;31.76;100673.00;5051794;28;45494;-82
2022/04/11 11:22:09;;;;;;;;;6.50;4.75;;;;;18.55;30.39;100633.63;4869677;29;45592;-81
2022/04/11 11:25:14;;;;;;;;;;;;;;;;;;;;;
2022/04/11 11:28:39;;;;;;;;;;;;;;;;;;;;;
2022/04/11 11:35:19;;;;;;;;;3.00;3.00;;;;;19.04;30.46;100647.75;4785541;29;45417;-82
2022/04/11 11:41:11;;;;;;;;;5.75;4.75;;;;;19.17;30.38;100638.31;4914514;28;45549;-80
2022/04/11 11:43:44;;;;;;;;;3.00;3.00;;;;;19.31;29.91;100643.09;4907411;28;45929;-79
2022/04/11 11:46:18;;;;;;;;;3.50;3.00;;;;;19.45;30.47;100638.03;4968145;28;45496;-83
2022/04/11 11:48:55;;;;;;;;;5.25;5.25;;;;;19.56;29.95;100624.22;5029582;28;45341;-82
2022/04/11 11:51:44;;;;;;;;;3.00;3.00;;;;;19.79;29.32;100640.16;5052664;28;47266;-82
2022/04/11 11:57:42;;;;;;;;;4.00;4.00;;;;;19.78;29.21;100616.16;4995929;28;45794;-80
2022/04/11 12:00:11;;;;;;;;;4.00;4.00;;;;;19.81;29.42;100616.06;5038236;28;45646;-79
2022/04/11 12:05:27;;;;;;;;;3.50;2.25;;;;;19.91;28.87;100620.03;5037818;28;45446;-81
2022/04/11 12:08:14;;;;;;;;;5.00;4.00;;;;;19.98;29.42;100615.28;5025861;28;45510;-78
2022/04/11 12:10:44;;;;;;;;;4.33;4.33;;;;;20.07;29.37;100611.34;5036289;28;45427;-79
2022/04/11 12:13:10;;;;;;;;;3.00;3.00;;;;;20.17;29.16;100609.97;5042823;28;47664;-79
2022/04/11 12:15:36;;;;;;;;;6.00;5.00;;;;;20.23;29.00;100610.59;5028283;28;45436;-81
2022/04/11 12:18:09;;;;;;;;;5.00;5.00;;;;;20.22;28.99;100608.84;5054855;28;45237;-80
2022/04/11 12:20:36;;;;;;;;;4.00;4.00;;;;;20.25;29.29;100598.00;5031911;28;45178;-80
2022/04/11 12:23:12;;;;;;;;;4.00;4.00;;;;;20.38;29.88;100603.63;5037705;28;45459;-81
2022/04/11 12:25:42;;;;;;;;;4.00;4.00;;;;;20.47;29.19;100603.22;5031203;28;45545;-81
2022/04/11 12:35:36;;;;;;;;;4.00;3.50;;;;;20.75;29.99;100568.97;4918322;28;45578;-83
2022/04/11 12:38:17;;;;;;;;;;;;;;;;;;;;;
2022/04/11 12:40:49;;;;;;;;;5.75;5.00;;;;;21.27;29.83;100567.22;5019682;28;67205;-81
2022/04/11 12:43:19;;;;;;;;;4.00;3.00;;;;;21.49;29.94;100559.00;5035763;28;45329;-78
2022/04/11 12:46:03;;;;;;;;;7.50;5.75;;;;;21.80;29.39;100552.00;5030452;28;47325;-78
2022/04/11 12:48:39;;;;;;;;;;;;;;;;;;;;;
2022/04/11 12:51:13;;;;;;;;;4.00;4.00;;;;;22.03;29.06;100556.97;5017884;28;69146;-77
2022/04/11 12:53:41;;;;;;;;;3.50;3.00;;;;;22.28;29.00;100552.13;5030877;28;45383;-77
2022/04/11 12:56:15;;;;;;;;;5.50;5.50;;;;;22.43;28.24;100546.78;5017495;28;46193;-78
2022/04/11 12:58:40;;;;;;;;;6.25;5.50;;;;;22.43;28.61;100540.53;5018537;28;45269;-78
2022/04/11 13:01:06;;;;;;;;;4.67;3.67;;;;;22.59;28.32;100549.44;5019505;28;45418;-78
2022/04/11 13:03:35;;;;;;;;;7.00;5.50;;;;;22.72;28.33;100541.56;5018600;28;45383;-77
2022/04/11 13:06:02;;;;;;;;;4.00;4.00;;;;;22.84;28.11;100546.22;5027778;28;45524;-78
2022/04/11 13:08:30;;;;;;;;;5.75;5.75;;;;;22.92;27.72;100545.78;5037056;28;45453;-78
2022/04/11 13:14:55;;;;;;;;;;;;;;;;;;;;;
2022/04/11 13:21:45;;;;;;;;;4.75;4.75;;;;;23.13;27.20;100529.38;5036590;28;45404;-78
2022/04/11 13:30:35;;;;;;;;;5.00;4.00;;;;;23.43;27.27;100530.22;5023606;28;45459;-78
2022/04/11 13:33:06;;;;;;;;;4.00;4.00;;;;;23.50;27.33;100525.34;5040169;28;45320;-78
2022/04/11 13:35:32;;;;;;;;;4.00;4.00;;;;;23.50;27.66;100510.09;5049974;28;45306;-78
2022/04/11 13:38:01;;;;;;;;;3.75;3.75;;;;;23.57;27.22;100497.13;5064183;28;45578;-78
2022/04/11 13:40:27;;;;;;;;;4.00;3.75;;;;;23.69;27.75;100503.56;5043439;28;47808;-79
2022/04/11 13:43:00;;;;;;;;;4.33;4.33;;;;;23.79;26.95;100491.31;5073747;28;45207;-78
2022/04/11 13:45:25;;;;;;;;;4.75;4.25;;;;;23.56;26.87;100477.44;5063625;28;45309;-78
2022/04/11 13:47:51;;;;;;;;;5.00;4.25;;;;;23.42;27.32;100487.34;5049734;28;45596;-79
2022/04/11 13:50:19;;;;;;;;;6.67;4.67;;;;;23.41;27.84;100482.91;5051491;28;47218;-79
2022/04/11 13:52:44;;;;;;;;;3.00;3.00;;;;;23.53;27.23;100483.00;5074826;28;45250;-79
2022/04/11 13:55:10;;;;;;;;;4.67;4.67;;;;;23.65;26.90;100486.75;5043153;28;45485;-79
2022/04/11 13:57:35;;;;;;;;;4.00;4.00;;;;;23.63;26.77;100487.81;5048473;28;45655;-79
2022/04/11 14:00:01;;;;;;;;;4.00;4.00;;;;;23.64;27.06;100473.44;5068798;28;45545;-79
2022/04/11 14:02:26;;;;;;;;;3.00;3.00;;;;;23.91;27.09;100469.00;5056236;28;45743;-79
2022/04/11 14:04:51;;;;;;;;;3.33;3.33;;;;;24.34;26.99;100460.84;5073826;28;45318;-79
2022/04/11 14:07:17;;;;;;;;;3.67;3.67;;;;;24.85;26.85;100461.06;5081149;28;45352;-79
2022/04/11 14:09:42;;;;;;;;;3.67;3.67;;;;;25.52;25.98;100460.94;5081397;28;45948;-80
2022/04/11 14:12:08;;;;;;;;;3.67;3.33;;;;;26.26;23.83;100463.75;5077511;28;45302;-79
2022/04/11 14:15:09;;;;;;;;;2.33;2.33;;;;;27.35;23.92;100462.75;5061081;28;45452;-80
2022/04/11 14:17:45;;;;;;;;;4.33;3.00;;;;;29.92;22.89;100455.72;5066578;28;45426;-80
2022/04/11 14:20:13;;;;;;;;;1.67;1.67;;;;;32.01;21.23;100454.19;5063413;28;45441;-80
2022/04/11 14:22:41;;;;;;;;;2.00;2.00;;;;;32.76;19.71;100453.13;5042145;28;45440;-79
2022/04/11 14:25:07;;;;;;;;;1.00;1.00;;;;;34.15;19.58;100438.50;5042426;28;45295;-80
2022/04/11 14:27:33;;;;;;;;;2.00;0.33;;;;;35.46;17.92;100449.53;5049554;28;45936;-79
2022/04/11 14:55:05;;;;;;;;;2.67;2.67;;;;;44.15;10.46;100413.19;4988033;28;45469;-85
2022/04/11 14:57:34;;;;;;;;;2.25;2.25;;;;;44.44;9.47;100403.19;5006951;28;46131;-90
2022/04/11 14:59:59;;;;;;;;;1.33;1.33;;;;;44.92;9.43;100393.88;5059934;28;45467;-90
2022/04/11 15:02:25;;;;;;;;;3.00;1.25;;;;;45.52;9.60;100393.56;5060842;28;45478;-94
2022/04/11 15:04:51;;;;;;;;;2.00;1.50;;;;;45.90;9.21;100403.31;5048275;28;45446;-94
2022/04/11 15:07:17;;;;;;;;;1.75;0.75;;;;;45.74;9.46;100401.28;5060259;28;46763;-90
2022/04/11 15:09:42;;;;;;;;;1.50;1.50;;;;;46.17;9.38;100391.59;5064056;28;45336;-86
2022/04/11 15:12:10;;;;;;;;;1.00;1.00;;;;;46.21;8.68;100392.78;5059796;28;45420;-86
2022/04/11 15:14:35;;;;;;;;;3.25;2.00;;;;;45.31;9.43;100394.22;5054891;28;45484;-86
2022/04/11 15:17:01;;;;;;;;;2.25;1.50;;;;;44.78;8.62;100392.38;5054720;28;45919;-85
2022/04/11 15:19:26;;;;;;;;;0.00;0.00;;;;;44.31;8.83;100382.00;5051285;28;45460;-91
2022/04/11 15:21:54;;;;;;;;;2.00;2.00;;;;;44.08;8.74;100387.47;5065619;28;45654;-89
2022/04/11 15:24:20;;;;;;;;;2.00;2.00;;;;;43.67;9.04;100395.44;5062755;28;45287;-90
2022/04/11 15:26:46;;;;;;;;;0.25;0.25;;;;;43.23;9.26;100374.41;5058140;28;47421;-86
2022/04/11 15:29:12;;;;;;;;;0.25;0.25;;;;;43.53;9.61;100377.25;5053781;28;45289;-86
2022/04/11 15:31:38;;;;;;;;;1.75;1.75;;;;;43.82;9.26;100383.97;5082500;28;44810;-88
2022/04/11 15:34:05;;;;;;;;;2.00;1.00;;;;;44.36;9.17;100381.28;5074818;28;45206;-84
2022/04/11 15:36:31;;;;;;;;;2.00;2.00;;;;;44.46;9.09;100379.66;5058736;28;46644;-86
2022/04/11 15:38:56;;;;;;;;;1.00;0.50;;;;;44.30;9.01;100379.47;5058538;28;44816;-89
2022/04/11 15:41:28;;;;;;;;;0.75;0.00;;;;;44.24;9.28;100362.69;5075031;28;45021;-92
2022/04/11 15:43:54;;;;;;;;;1.00;1.00;;;;;43.87;9.25;100374.91;5072425;27;44859;-89
